My Meet Scores
Klaesyn Sibless, Huntley Unlimited Gymnastics School - MyMeetScores.com
Top100 | Top Teams | Upcoming Meets | Completed Meets | Latest | Add Scores | Help| Support | Bookmark and Share

Klaesyn Sibless, Huntley Unlimited Gymnastics School
Personal Bests
LevelVault BarsBeamFloorAA
49.3259.275 9.4009.10036.425
58.6008.625 8.6258.75033.675
68.8008.750 8.9008.92533.775
78.9250.000 8.4508.95026.075
Meet Scores
Date Meet Team Session Level Division Vault Bars Beam Floor AA
2013-02-22 Midwest Open 2013 Huntley Unlimited Gymnastics School 10A 7 11 8.925 15 0.000 17 6.550 17 8.550 16 24.025 17
2013-02-15 Midwest Twisters HarleyDavidson Invite Huntley Unlimited Gymnastics School 1S 7 11 & under 8.450 19 0.000 19 5.700 19 8.350 19 22.500 19
2013-02-01 St. Valentines Classic Huntley Unlimited Gymnastics School A 7 8-11 yr 8.150 42 0.000 38 6.250 40 8.550 34 22.950 41
2013-01-17 Lady Luck Invitational Huntley Unlimited Gymnastics School HC2 7 L7hc2 grp2 8.350 15 0.000 15 7.600 14 8.950 11 24.900 15
2013-01-12 St. Jude Benefit Meet Huntley Unlimited Gymnastics School GymB 7 11 8.675 28 0.000 28 8.450 22 8.950 23 26.075 28
2012-12-13 2012 Hawaiin Pineapple Classic Huntley Unlimited Gymnastics School 3 7 age 11 8.700 12 0.000 12T 0.000 13 8.850 6 17.550 13
2012-11-30 Ultimate Wish Classic 2012 Huntley Unlimited Gymnastics School 7 L7 Jr S1 8.750 21 0.000 23 0.000 23 8.750 15 17.500 23
2012-03-16 2012 Illinois Level 6, 7 State Championships Huntley Unlimited Gymnastics School 2 6 YouthB 8.300 26 7.750 21T 8.800 16 8.925 15 33.775 22
2012-03-02 2012 Elgin Invite Huntley Unlimited Gymnastics School 1 6 10yrs 8.800 17 7.925 16 8.650 19 8.400 17 33.775 19
2012-02-04 2012 St. Valentines Classic Huntley Unlimited Gymnastics School 1C 6 10 8.375 21 8.250 12 8.900 7 8.150 16 33.675 15
2012-01-20 Circle of Stars Huntley Unlimited Gymnastics School 2C7 6 10 8.400 30 7.925 18 8.200 28 8.050 30T 32.575 27
2011-12-15 2011 Hawaiian Pineapple Classic Huntley Unlimited Gymnastics School 3B 6 10 8.550 21 8.250 3 8.700 10 8.050 14T 33.550 12
2011-12-02 Santa's workshop & Gift Drive Huntley Unlimited Gymnastics School 6 Ch 7.500 10 8.750 6 7.500 8 8.350 5 32.100 7
2011-11-18 2011 Thanksgiving Classic Huntley Unlimited Gymnastics School 7 6 7-10 4.750 20 7.950 10T 8.500 12 8.750 7 29.950 18
2011-04-01 2011 Illinois Level 5 State Meet Huntley Unlimited Gymnastics School 1 5 Youth.B 8.600 27 8.475 23 7.850 29 8.750 28 33.675 29
2011-02-26 Midwest Open Huntley Unlimited Gymnastics School 3A 5 9 7.600 23 8.250 18 8.550 23 8.000 23 32.400 23
2011-02-18 Harley Davidson Midwest Twisters Invitational Huntley Unlimited Gymnastics School 5AO/5BO 5 9 7.900 18T 7.750 16 8.625 16 7.150 23 31.425 22
2011-01-28 UGA Classic Huntley Unlimited Gymnastics School 2 5 Lvl 5: 9 8.250 25 7.400 34 8.300 31 8.250 30 32.200 34
2011-01-21 Bravo Classic Huntley Unlimited Gymnastics School 6B 5 9 7.250 19 7.700 19 8.475 16 8.200 18 31.625 19
2011-01-14 St. Jude Benefit Meet Huntley Unlimited Gymnastics School 8 5 9 8.300 14 8.625 12 7.800 21 8.500 13 33.225 19
2010-12-17 2010 Hawaiian Pineapple Classic Huntley Unlimited Gymnastics School 5B 5 9 7.400 13 7.400 16 7.750 15 8.200 14 30.750 16
2010-11-19 Thanksgiving Classic Huntley Unlimited Gymnastics School 6 5 Jr 7.700 20 7.150 20 7.850 20 7.650 21 30.350 21
2010-11-12 North Judges Cup Huntley Unlimited Gymnastics School 5B 5 9yrs. 8.050 27 5.100 27 7.650 26 7.900 22 28.700 27
2010-03-26 2010 Illinois Level 4 State Championships Huntley Unlimited Gymnastics School 4 Youth.E 9.025 21 8.950 22 8.275 27 8.500 25 34.750 24
2010-02-27 Midwest Open Huntley Unlimited Gymnastics School 6B 4 8 9.050 9 9.050 11 8.700 9 8.850 13 35.650 8
2010-02-20 BIG Dream Classic 2010 Huntley Unlimited Gymnastics School 1B 4 8 8.950 7 8.725 17 9.400 4 8.500 19 35.575 14
2010-02-12 IGI Chicago Style Gymnastics Meet Huntley Unlimited Gymnastics School 222 4 8 8.900 28T 8.725 19 8.800 18T 8.850 22T 35.275 25T
2010-01-16 2010 St. Jude Benefit Meet Huntley Unlimited Gymnastics School 12 4 8 8.550 18 9.225 15 8.925 11 8.850 16 35.550 27
2009-12-17 2009 Hawaiian Pineapple Classic Huntley Unlimited Gymnastics School 4B 4 8 8.850 8 9.275 2 8.400 11 8.800 6 35.325 5
2009-12-04 Ultimate Wish Classic Huntley Unlimited Gymnastics School 2 4 Ch6-8 8.650 34 9.175 4 8.400 10T 8.700 7 34.925 11
2009-11-13 2009 North Judges Cup Huntley Unlimited Gymnastics School 6B 4 8 9.175 3 9.200 2 8.950 7 9.100 2 36.425 2
2009-03-13 2009 Illinois Level 4 State Championships Gym-Kinetics 4 ChildB 9.325 7 8.700 15 8.850 5 8.350 22 35.225 14
2009-03-07 Midwest Open 2009 Gym Kinetics Sports Complex 2A 4 6-7 8.700 22 8.600 18 8.650 21 8.600 23 34.550 23
2009-02-06 IGI Chicago Style Gymnastics Meet Gym Kinetics Gymnastics 121 4 8 and Under 8.450 30T 9.150 12 8.625 15 8.400 33T 34.625 22
2009-01-23 2009 Bravo Classic Gym Kinetics Gymnastics 8B 4 6-7yrs 8.650 23 9.000 10 8.600 14 8.300 27 34.550 20
2009-01-09 Twistars Invitational 2009 Midnight Madness Gym Kinetics Sports Complex 4b 4 7_and_under 8.750 5 9.025 4 8.425 3 8.450 4 34.650 3
2008-12-13 St Nick Invite Gym Kinetics Sports Complex 5 4 All 8.700 44 8.775 23 8.500 51 8.000 80 33.975 52
2008-11-22 Thanksgiving Classic Gym Kinetics Gymnastics 6 4 Ch 6-7 8.700 16 8.800 5T 6.950 20 7.900 21 32.350 19

www.lazysuits.com